Mattapoisett, MA

9:46 PM EDT on April 20, 2015 (GMT -0400)
Aucoot Cove | | Change Station
CLOSE
Current Station
Personal Weather Station
Location: Marion, MA
Elevation: 30 ft
Nearby Weather Stations
Active Advisory: Coastal Flood Advisory

Elev 30 ft 41.68 °N, 70.76 °W | Updated 8 minutes ago

Overcast
Overcast
53.0 °F
Feels Like 53.0 °F
N
9.0
Wind Variable Wind from SE

Today
High -- | Low -- °F
--% Chance of Precip.
Yesterday
High -- | Low -- °F
Precip. -- in
5:55 AM 7:29 PM
Waxing Crescent, 7% visible
Pressure 29.77 in
Visibility 9.0 miles
Clouds Overcast 500 ft
Dew Point 51 °F
Humidity 91%
Rainfall 0.29 in
Snow Depth Not available.
UV 0 out of 12
Pollen 5.60 out of 12
Air Quality Not available.
Flu Activity Widespread
METAR KEWB 210053Z 14021G29KT 9SM OVC005 12/12 A2977 RMK AO2 PK WND 13029/0052 RAE43 SLP081 P0011 T01220117

More Conditions Fewer Conditions

Pressure 29.77 in
Visibility 9.0 miles
Clouds Overcast 500 ft
Dew Point 51 °F
Humidity 91%
Rainfall 0.29 in
Snow Depth Not available.
UV 0 out of 12
Pollen 5.60 out of 12
Air Quality Not available.
Flu Activity Widespread
METAR KEWB 210053Z 14021G29KT 9SM OVC005 12/12 A2977 RMK AO2 PK WND 13029/0052 RAE43 SLP081 P0011 T01220117

More Conditions Fewer Conditions

10-Day Weather Forecast

Almanac

Astronomy

Apr. 20, 2015 Rise Set
Actual Time
Civil Twilight
Nautical Twilight
Astronomical Twilight
Moon
Length of Visible Light
Length of Day
Tomorrow will be .
, % of the Moon is Illuminated

Today's Extremes

State Highs State Lows

Community

WunderPhotos

Upload Photos

1,815,276 photos uploaded!

WunderBlogs® & News

Nearby

Air Quality

  Air Quality AQ Index Pollutant
Not available.

Snow Depth

Station Depth Elevation

Earthquake Activity

City Distance Mag. Time & Date
Minimum magnitude displayed is 2.5.

Coastal Water Temperatures

Place Temperature

Stations

Nearby Weather Stations

Station Location Temp. Windchill Dew Point Humidity Wind Precip. Elev Updated Type
                   
Coastal Flood Advisory
Statement as of 3:54 PM EDT on April 20, 2015

... Coastal Flood Advisory remains in effect from 8 PM this evening to midnight
EDT tonight...

* location... the south coasts of Massachusetts and Rhode Island.

* Coastal flooding... minor coastal flooding and splash over likely during this
evenings high tide cycle.

* Timing... during the evening high tide roughly between 8 PM and midnight.

* Impacts... a few vulnerable shore roads may experience flooding and splash
over within an hour or so of the high tide. However significant coastal
flooding is not expected at this time.

Precautionary/preparedness actions...

A coastal Flood Advisory is issued for minor coastal flooding of the most
vulnerable shore roads and/or basements due to the height of storm tide or wave
splashover. The majority of roads remain passable with only isolated closures.
There is no significant threat to life and any impact on property is minimal.